createdAt,value
2023-02-19T00:00:44.177Z,13.50
2023-02-19T00:03:12.445Z,13.52
2023-02-19T00:05:44.197Z,13.49
2023-02-19T00:08:14.836Z,13.46
2023-02-19T00:11:04.836Z,13.45
2023-02-19T00:13:39.447Z,13.38
2023-02-19T00:16:10.592Z,13.35
2023-02-19T00:18:42.327Z,13.38
2023-02-19T00:21:11.311Z,13.18
2023-02-19T00:23:39.428Z,13.33
2023-02-19T00:26:18.814Z,13.35
2023-02-19T00:28:50.675Z,13.26
2023-02-19T00:31:19.827Z,13.31
2023-02-19T00:33:49.384Z,13.32
2023-02-19T00:36:20.808Z,13.28
2023-02-19T00:38:48.919Z,13.29
2023-02-19T00:41:21.405Z,13.26
2023-02-19T00:43:50.963Z,13.25
2023-02-19T00:46:28.622Z,13.22
2023-02-19T00:48:56.899Z,13.25
2023-02-19T00:51:25.765Z,13.10
2023-02-19T00:53:53.857Z,13.23
2023-02-19T00:56:23.292Z,13.24
2023-02-19T00:58:51.564Z,13.23
2023-02-19T01:01:19.705Z,13.26
2023-02-19T01:03:49.582Z,13.24
2023-02-19T01:06:18.946Z,13.25
2023-02-19T01:08:47.652Z,13.19
2023-02-19T01:11:16.048Z,13.09
2023-02-19T01:13:46.776Z,13.03
2023-02-19T01:16:15.745Z,13.20
2023-02-19T01:18:46.088Z,13.20
2023-02-19T01:21:17.599Z,13.13
2023-02-19T01:23:46.801Z,13.19
2023-02-19T01:26:20.830Z,13.24
2023-02-19T01:28:52.650Z,13.21
2023-02-19T01:31:21.904Z,13.24
2023-02-19T01:33:54.739Z,13.26
2023-02-19T01:36:30.605Z,13.33
2023-02-19T01:39:01.562Z,13.34
2023-02-19T01:41:29.880Z,13.41
2023-02-19T01:44:27.751Z,13.48
2023-02-19T01:47:00.371Z,13.53
2023-02-19T01:49:31.358Z,13.59
2023-02-19T01:52:02.536Z,13.61
2023-02-19T01:54:33.513Z,13.72
2023-02-19T01:57:02.351Z,13.77
2023-02-19T01:59:30.390Z,13.80
2023-02-19T02:02:02.242Z,13.77
2023-02-19T02:04:32.355Z,13.73
2023-02-19T02:07:02.107Z,13.78
2023-02-19T02:09:48.942Z,13.84
2023-02-19T02:12:17.275Z,13.89
2023-02-19T02:14:46.612Z,13.94
2023-02-19T02:17:31.498Z,13.94
2023-02-19T02:20:24.188Z,14.01
2023-02-19T02:22:56.414Z,14.00
2023-02-19T02:25:48.006Z,14.01
2023-02-19T02:28:23.861Z,14.00
2023-02-19T02:30:56.319Z,13.98
2023-02-19T02:33:33.205Z,14.00
2023-02-19T02:36:04.777Z,14.01
2023-02-19T02:38:34.513Z,14.00
2023-02-19T02:41:03.911Z,13.99
2023-02-19T02:43:33.099Z,13.97
2023-02-19T02:46:04.786Z,13.96
2023-02-19T02:48:41.955Z,13.99
2023-02-19T02:51:17.077Z,13.98
2023-02-19T02:54:26.504Z,13.98
2023-02-19T02:56:55.748Z,13.96
2023-02-19T02:59:26.235Z,13.92
2023-02-19T03:02:14.533Z,13.90
2023-02-19T03:05:17.001Z,13.91
2023-02-19T03:07:48.861Z,13.90
2023-02-19T03:10:19.838Z,13.95
2023-02-19T03:13:06.735Z,13.97
2023-02-19T03:15:55.671Z,13.97
2023-02-19T03:18:43.530Z,14.00
2023-02-19T03:21:11.772Z,14.08
2023-02-19T03:24:01.226Z,14.10
2023-02-19T03:26:32.183Z,14.13
2023-02-19T03:29:17.081Z,14.13
2023-02-19T03:31:46.580Z,14.14
2023-02-19T03:34:18.545Z,14.15
2023-02-19T03:36:49.584Z,14.16
2023-02-19T03:39:22.647Z,14.23
2023-02-19T03:41:56.230Z,14.23
2023-02-19T03:44:34.947Z,14.19
2023-02-19T03:47:05.015Z,14.08
2023-02-19T03:49:41.794Z,14.13
2023-02-19T03:52:14.748Z,14.10
2023-02-19T03:54:49.823Z,14.08
2023-02-19T03:57:20.361Z,13.94
2023-02-19T03:59:51.015Z,13.91
2023-02-19T04:02:23.462Z,13.88
2023-02-19T04:04:56.405Z,13.69
2023-02-19T04:07:24.615Z,13.79
2023-02-19T04:09:52.546Z,13.71
2023-02-19T04:12:22.375Z,13.59
2023-02-19T04:14:53.061Z,13.65
2023-02-19T04:17:25.498Z,13.67
2023-02-19T04:19:55.728Z,13.74
2023-02-19T04:22:24.394Z,13.72
2023-02-19T04:24:53.218Z,13.81
2023-02-19T04:27:21.248Z,13.84
2023-02-19T04:29:49.454Z,13.87
2023-02-19T04:32:19.585Z,13.89
2023-02-19T04:34:49.835Z,13.90
2023-02-19T04:37:19.180Z,13.86
2023-02-19T04:39:48.583Z,13.80
2023-02-19T04:42:16.810Z,13.77
2023-02-19T04:44:47.552Z,13.75
2023-02-19T04:47:17.956Z,13.75
2023-02-19T04:49:46.813Z,13.75
2023-02-19T04:52:15.990Z,13.78
2023-02-19T04:54:48.073Z,13.77
2023-02-19T04:57:16.652Z,13.75
2023-02-19T04:59:44.665Z,13.71
2023-02-19T05:02:14.015Z,13.69
2023-02-19T05:04:45.900Z,13.59
2023-02-19T05:07:13.846Z,13.69
2023-02-19T05:09:43.335Z,13.73
2023-02-19T05:12:12.746Z,13.77
2023-02-19T05:14:40.736Z,13.81
2023-02-19T05:17:12.078Z,13.78
2023-02-19T05:19:40.094Z,13.87
2023-02-19T05:22:08.085Z,13.89
2023-02-19T05:24:36.027Z,13.89
2023-02-19T05:27:04.052Z,13.87
2023-02-19T05:29:33.492Z,13.86
2023-02-19T05:32:01.497Z,13.86
2023-02-19T05:34:29.481Z,13.90
2023-02-19T05:36:57.469Z,13.94
2023-02-19T05:39:25.466Z,13.99
2023-02-19T05:41:53.518Z,14.01
2023-02-19T05:44:26.375Z,14.05
2023-02-19T05:46:55.908Z,14.01
2023-02-19T05:49:24.020Z,14.07
2023-02-19T05:51:52.020Z,14.04
2023-02-19T05:54:20.162Z,14.04
2023-02-19T05:56:48.099Z,13.99
2023-02-19T05:59:17.111Z,13.97
2023-02-19T06:01:45.588Z,13.89
2023-02-19T06:04:15.551Z,13.84
2023-02-19T06:06:45.931Z,13.78
2023-02-19T06:09:14.029Z,13.79
2023-02-19T06:11:43.455Z,13.80
2023-02-19T06:14:12.605Z,13.78
2023-02-19T06:16:44.238Z,13.90
2023-02-19T06:19:14.587Z,13.95
2023-02-19T06:21:42.571Z,13.90
2023-02-19T06:24:10.935Z,13.80
2023-02-19T06:26:39.084Z,13.95
2023-02-19T06:29:07.184Z,13.94
2023-02-19T06:31:35.193Z,13.90
2023-02-19T06:34:06.217Z,13.84
2023-02-19T06:36:38.919Z,13.81
2023-02-19T06:39:06.961Z,13.76
2023-02-19T06:41:35.023Z,13.68
2023-02-19T06:44:03.260Z,13.62
2023-02-19T06:46:31.871Z,13.55
2023-02-19T06:49:01.493Z,13.55
2023-02-19T06:51:32.562Z,13.52
2023-02-19T06:54:08.376Z,13.50
2023-02-19T06:56:37.630Z,13.49
2023-02-19T06:59:06.299Z,13.38
2023-02-19T07:01:37.213Z,13.35
2023-02-19T07:04:05.807Z,13.29
2023-02-19T07:06:34.164Z,13.20
2023-02-19T07:09:02.234Z,13.15
2023-02-19T07:11:34.848Z,13.10
2023-02-19T07:14:03.740Z,12.91
2023-02-19T07:16:31.751Z,13.00
2023-02-19T07:19:00.183Z,12.98
2023-02-19T07:21:30.133Z,12.86
2023-02-19T07:24:12.373Z,13.01
2023-02-19T07:26:41.923Z,13.01
2023-02-19T07:29:10.800Z,13.01
2023-02-19T07:31:40.900Z,13.01
2023-02-19T07:34:08.952Z,12.96
2023-02-19T07:36:38.093Z,12.96
2023-02-19T07:39:09.938Z,13.00
2023-02-19T07:41:41.421Z,12.99
2023-02-19T07:44:13.530Z,13.02
2023-02-19T07:46:41.609Z,13.05
2023-02-19T07:49:09.911Z,13.07
2023-02-19T07:51:39.923Z,13.11
2023-02-19T07:54:08.527Z,13.12
2023-02-19T07:56:38.790Z,13.17
2023-02-19T07:59:14.417Z,13.20
2023-02-19T08:02:11.915Z,13.17
2023-02-19T08:04:40.331Z,13.18
2023-02-19T08:07:08.419Z,13.14
2023-02-19T08:09:41.770Z,13.14
2023-02-19T08:12:28.647Z,13.17
2023-02-19T08:14:58.828Z,13.17
2023-02-19T08:17:33.498Z,13.21
2023-02-19T08:20:02.811Z,13.19
2023-02-19T08:22:30.889Z,13.20
2023-02-19T08:25:03.764Z,13.19
2023-02-19T08:27:31.900Z,13.20
2023-02-19T08:30:00.243Z,13.21
2023-02-19T08:32:30.850Z,13.22
2023-02-19T08:35:01.295Z,13.23
2023-02-19T08:37:29.324Z,13.23
2023-02-19T08:39:57.294Z,13.18
2023-02-19T08:42:25.663Z,13.19
2023-02-19T08:44:53.860Z,13.16
2023-02-19T08:47:23.292Z,13.18
2023-02-19T08:49:56.067Z,13.22
2023-02-19T08:52:24.344Z,13.34
2023-02-19T08:54:52.375Z,13.45
2023-02-19T08:57:22.058Z,13.55
2023-02-19T08:59:50.257Z,13.65
2023-02-19T09:02:18.661Z,13.80
2023-02-19T09:04:47.340Z,13.93
2023-02-19T09:07:19.127Z,13.97
2023-02-19T09:09:48.815Z,14.03
2023-02-19T09:12:16.777Z,14.07
2023-02-19T09:14:44.769Z,14.13
2023-02-19T09:17:14.230Z,14.14
2023-02-19T09:19:45.622Z,14.12
2023-02-19T09:22:13.781Z,14.16
2023-02-19T09:24:51.301Z,14.08
2023-02-19T09:27:21.062Z,14.01
2023-02-19T09:29:51.933Z,13.98
2023-02-19T09:32:20.431Z,14.00
2023-02-19T09:34:48.496Z,14.00
2023-02-19T09:37:18.548Z,14.03
2023-02-19T09:39:48.273Z,14.06
2023-02-19T09:42:17.855Z,14.04
2023-02-19T09:44:48.994Z,14.25
2023-02-19T09:47:20.217Z,14.42
2023-02-19T09:49:52.287Z,14.59
2023-02-19T09:52:26.515Z,14.73
2023-02-19T09:54:59.277Z,14.93
2023-02-19T09:57:29.574Z,15.11
2023-02-19T10:00:02.005Z,15.23
2023-02-19T10:02:35.488Z,15.45
2023-02-19T10:05:07.629Z,15.46
2023-02-19T10:07:42.198Z,15.46
2023-02-19T10:10:41.554Z,15.67
2023-02-19T10:13:28.366Z,15.74
2023-02-19T10:16:00.618Z,15.81
2023-02-19T10:18:41.651Z,15.91
2023-02-19T10:21:19.929Z,16.09
2023-02-19T10:23:48.247Z,15.93
2023-02-19T10:26:26.407Z,15.74
2023-02-19T10:28:55.656Z,15.75
2023-02-19T10:31:34.811Z,15.80
2023-02-19T10:34:12.134Z,15.46
2023-02-19T10:36:49.295Z,15.63
2023-02-19T10:39:42.339Z,15.50
2023-02-19T10:42:19.242Z,15.35
2023-02-19T10:44:48.740Z,15.45
2023-02-19T10:47:18.576Z,15.54
2023-02-19T10:49:49.103Z,15.55
2023-02-19T10:52:19.215Z,15.57
2023-02-19T10:54:47.239Z,15.53
2023-02-19T10:57:30.077Z,15.46
2023-02-19T11:00:02.001Z,15.41
2023-02-19T11:02:30.884Z,15.33
2023-02-19T11:05:08.532Z,15.29
2023-02-19T11:07:37.244Z,15.22
2023-02-19T11:10:09.806Z,15.14
2023-02-19T11:12:39.717Z,15.27
2023-02-19T11:15:21.304Z,15.30
2023-02-19T11:17:55.980Z,15.35
2023-02-19T11:20:27.494Z,15.21
2023-02-19T11:22:58.685Z,15.33
2023-02-19T11:25:29.624Z,15.40
2023-02-19T11:28:38.050Z,15.44
2023-02-19T11:31:23.187Z,15.41
2023-02-19T11:34:00.164Z,15.48
2023-02-19T11:36:30.886Z,15.43
2023-02-19T11:39:00.149Z,15.45
2023-02-19T11:41:42.455Z,15.49
2023-02-19T11:44:25.632Z,15.49
2023-02-19T11:46:59.061Z,15.51
2023-02-19T11:49:31.438Z,15.64
2023-02-19T11:52:10.378Z,15.71
2023-02-19T11:54:51.094Z,15.73
2023-02-19T11:57:29.858Z,15.70
2023-02-19T12:00:14.136Z,15.73
2023-02-19T12:03:12.192Z,15.71
2023-02-19T12:05:53.209Z,15.70
2023-02-19T12:09:14.200Z,15.61
2023-02-19T12:12:02.920Z,15.53
2023-02-19T12:15:06.330Z,15.48
2023-02-19T12:17:45.735Z,15.36
2023-02-19T12:20:20.117Z,15.41
2023-02-19T12:22:52.201Z,15.41
2023-02-19T12:25:34.361Z,15.46
2023-02-19T12:28:31.449Z,15.50
2023-02-19T12:31:11.901Z,15.39
2023-02-19T12:34:02.197Z,15.45
2023-02-19T12:36:37.964Z,15.47
2023-02-19T12:39:08.806Z,15.46
2023-02-19T12:41:41.034Z,15.49
2023-02-19T12:44:20.801Z,15.46
2023-02-19T12:46:50.940Z,15.61
2023-02-19T12:49:35.912Z,15.65
2023-02-19T12:52:12.457Z,15.71
2023-02-19T12:54:42.455Z,15.74
2023-02-19T12:57:13.206Z,15.85
2023-02-19T12:59:45.929Z,15.68
2023-02-19T13:02:20.833Z,15.86
2023-02-19T13:04:59.184Z,15.90
2023-02-19T13:07:31.653Z,15.89
2023-02-19T13:10:06.794Z,16.06
2023-02-19T13:12:40.497Z,16.13
2023-02-19T13:15:14.750Z,16.18
2023-02-19T13:17:47.481Z,16.12
2023-02-19T13:20:21.613Z,16.04
2023-02-19T13:23:10.974Z,16.12
2023-02-19T13:25:45.948Z,16.00
2023-02-19T13:28:29.949Z,15.99
2023-02-19T13:31:15.568Z,15.85
2023-02-19T13:33:48.290Z,15.77
2023-02-19T13:36:20.604Z,15.74
2023-02-19T13:39:09.043Z,15.71
2023-02-19T13:41:45.470Z,15.73
2023-02-19T13:44:18.472Z,15.55
2023-02-19T13:46:50.303Z,15.63
2023-02-19T13:49:46.271Z,15.58
2023-02-19T13:52:43.886Z,15.52
2023-02-19T13:55:54.755Z,15.53
2023-02-19T13:58:55.961Z,15.41
2023-02-19T14:02:15.885Z,15.43
2023-02-19T14:04:54.288Z,15.48
2023-02-19T14:08:02.946Z,15.47
2023-02-19T14:11:08.591Z,15.48
2023-02-19T14:14:07.119Z,15.50
2023-02-19T14:16:51.207Z,15.44
2023-02-19T14:19:55.360Z,15.45
2023-02-19T14:22:52.805Z,15.31
2023-02-19T14:25:39.311Z,15.32
2023-02-19T14:28:36.976Z,15.27
2023-02-19T14:31:12.436Z,15.17
2023-02-19T14:33:45.707Z,15.23
2023-02-19T14:36:21.240Z,15.21
2023-02-19T14:38:52.401Z,15.14
2023-02-19T14:41:20.441Z,15.12
2023-02-19T14:43:51.712Z,15.09
2023-02-19T14:46:27.789Z,15.01
2023-02-19T14:48:57.277Z,14.95
2023-02-19T14:51:31.035Z,14.90
2023-02-19T14:54:00.463Z,14.85
2023-02-19T14:56:37.269Z,14.93
2023-02-19T14:59:24.889Z,14.91
2023-02-19T15:01:57.489Z,14.96
2023-02-19T15:04:27.585Z,14.88
2023-02-19T15:06:57.083Z,14.98
2023-02-19T15:09:38.301Z,15.08
2023-02-19T15:12:16.941Z,15.09
2023-02-19T15:14:56.448Z,15.12
2023-02-19T15:17:30.406Z,15.16
2023-02-19T15:19:58.662Z,15.08
2023-02-19T15:25:16.357Z,14.99
2023-02-19T15:27:45.123Z,15.07
2023-02-19T15:30:22.963Z,15.03
2023-02-19T15:32:54.930Z,14.98
2023-02-19T15:35:25.140Z,14.80
2023-02-19T15:37:53.437Z,14.84
2023-02-19T15:40:29.153Z,14.71
2023-02-19T15:43:05.901Z,14.83
2023-02-19T15:45:39.959Z,14.73
2023-02-19T15:48:14.299Z,14.75
2023-02-19T15:50:44.089Z,14.70
2023-02-19T15:53:49.894Z,14.59
2023-02-19T15:57:15.855Z,14.41
2023-02-19T15:59:45.754Z,14.27
2023-02-19T16:02:22.985Z,14.25
2023-02-19T16:05:33.763Z,14.29
2023-02-19T16:08:21.415Z,14.35
2023-02-19T16:10:57.922Z,14.32
2023-02-19T16:17:52.693Z,14.42
2023-02-19T16:21:54.956Z,14.48
2023-02-19T16:24:30.631Z,14.32
2023-02-19T16:27:31.882Z,14.35
2023-02-19T16:30:00.410Z,14.23
2023-02-19T16:32:28.779Z,14.18
2023-02-19T16:39:39.808Z,14.00
2023-02-19T16:46:51.292Z,13.89
2023-02-19T16:49:19.603Z,13.91
2023-02-19T16:51:54.825Z,13.97
2023-02-19T16:54:25.587Z,13.97
2023-02-19T16:57:25.772Z,14.00
2023-02-19T17:00:04.240Z,13.94
2023-02-19T17:02:34.412Z,13.74
2023-02-19T17:05:05.805Z,13.74
2023-02-19T17:07:34.946Z,13.64
2023-02-19T17:10:03.241Z,13.65
2023-02-19T17:18:03.621Z,13.58
2023-02-19T17:20:39.041Z,13.60
2023-02-19T17:23:08.476Z,13.54
2023-02-19T17:25:43.186Z,13.62
2023-02-19T17:28:35.731Z,13.60
2023-02-19T17:31:15.090Z,13.56
2023-02-19T17:33:59.432Z,13.47
2023-02-19T17:36:30.629Z,13.46
2023-02-19T17:39:01.724Z,13.43
2023-02-19T17:41:34.182Z,13.39
2023-02-19T17:44:18.912Z,13.37
2023-02-19T17:46:47.644Z,13.29
2023-02-19T17:49:17.994Z,13.31
2023-02-19T17:51:49.391Z,13.26
2023-02-19T17:54:17.474Z,13.20
2023-02-19T17:56:54.961Z,13.21
2023-02-19T17:59:47.310Z,13.20
2023-02-19T18:02:29.384Z,13.11
2023-02-19T18:04:59.736Z,13.15
2023-02-19T18:07:41.751Z,13.18
2023-02-19T18:10:13.723Z,13.18
2023-02-19T18:12:41.953Z,13.22
2023-02-19T18:15:19.442Z,13.25
2023-02-19T18:17:50.539Z,13.28
2023-02-19T18:20:25.819Z,13.35
2023-02-19T18:22:54.812Z,13.38
2023-02-19T18:25:23.332Z,13.37
2023-02-19T18:27:51.511Z,13.26
2023-02-19T18:30:24.761Z,13.42
2023-02-19T18:32:54.708Z,13.47
2023-02-19T18:35:26.123Z,13.48
2023-02-19T18:38:03.737Z,13.46
2023-02-19T18:40:33.747Z,13.51
2023-02-19T18:43:08.213Z,13.52
2023-02-19T18:45:38.031Z,13.47
2023-02-19T18:48:06.250Z,13.47
2023-02-19T18:50:37.936Z,13.44
2023-02-19T18:53:06.061Z,13.43
2023-02-19T18:55:37.158Z,13.43
2023-02-19T18:58:07.241Z,13.45
2023-02-19T19:00:37.928Z,13.46
2023-02-19T19:03:13.891Z,13.49
2023-02-19T19:05:45.661Z,13.45
2023-02-19T19:08:14.456Z,13.40
2023-02-19T19:10:45.918Z,13.41
2023-02-19T19:13:28.127Z,13.39
2023-02-19T19:15:56.232Z,13.26
2023-02-19T19:18:28.276Z,13.39
2023-02-19T19:21:02.055Z,13.25
2023-02-19T19:23:33.234Z,13.35
2023-02-19T19:26:01.515Z,13.26
2023-02-19T19:28:45.945Z,13.21
2023-02-19T19:31:17.859Z,13.14
2023-02-19T19:33:54.505Z,13.24
2023-02-19T19:36:26.311Z,13.23
2023-02-19T19:38:58.830Z,13.25
2023-02-19T19:41:35.490Z,13.18
2023-02-19T19:44:05.258Z,13.18
2023-02-19T19:46:33.369Z,13.27
2023-02-19T19:49:04.132Z,13.28
2023-02-19T19:51:32.872Z,13.24
2023-02-19T19:54:10.361Z,13.36
2023-02-19T19:56:41.825Z,13.40
2023-02-19T19:59:13.602Z,13.42
2023-02-19T20:01:49.766Z,13.41
2023-02-19T20:04:21.560Z,13.42
2023-02-19T20:06:49.662Z,13.45
2023-02-19T20:09:20.048Z,13.45
2023-02-19T20:11:49.183Z,13.45
2023-02-19T20:14:17.314Z,13.44
2023-02-19T20:16:51.471Z,13.43
2023-02-19T20:19:28.897Z,13.45
2023-02-19T20:21:57.271Z,13.43
2023-02-19T20:24:31.043Z,13.35
2023-02-19T20:27:00.122Z,13.42
2023-02-19T20:29:29.069Z,13.46
2023-02-19T20:31:59.565Z,13.44
2023-02-19T20:34:31.362Z,13.43
2023-02-19T20:36:59.606Z,13.52
2023-02-19T20:39:39.939Z,13.49
2023-02-19T20:42:08.734Z,13.35
2023-02-19T20:44:37.827Z,13.46
2023-02-19T20:47:06.209Z,13.45
2023-02-19T20:49:35.927Z,13.46
2023-02-19T20:52:06.713Z,13.45
2023-02-19T20:54:35.972Z,13.43
2023-02-19T20:57:12.419Z,13.45
2023-02-19T20:59:50.242Z,13.42
2023-02-19T21:02:29.254Z,13.38
2023-02-19T21:04:58.752Z,13.19
2023-02-19T21:07:34.302Z,13.29
2023-02-19T21:10:07.110Z,13.34
2023-02-19T21:12:36.648Z,13.33
2023-02-19T21:15:05.327Z,13.28
2023-02-19T21:17:38.573Z,13.28
2023-02-19T21:20:12.181Z,13.24
2023-02-19T21:22:42.695Z,13.25
2023-02-19T21:25:12.398Z,13.24
2023-02-19T21:27:40.378Z,13.25
2023-02-19T21:30:10.850Z,13.21
2023-02-19T21:32:38.897Z,13.20
2023-02-19T21:35:09.740Z,13.20
2023-02-19T21:37:42.999Z,13.17
2023-02-19T21:40:12.771Z,13.16
2023-02-19T21:42:40.727Z,13.16
2023-02-19T21:45:09.676Z,13.12
2023-02-19T21:47:40.381Z,13.09
2023-02-19T21:50:11.445Z,13.05
2023-02-19T21:52:47.636Z,13.02
2023-02-19T21:56:22.453Z,12.94
2023-02-19T21:58:50.451Z,12.80
2023-02-19T22:01:20.978Z,12.79
2023-02-19T22:03:53.510Z,12.78
2023-02-19T22:06:26.907Z,12.75
2023-02-19T22:08:56.348Z,12.65
2023-02-19T22:11:24.288Z,12.81
2023-02-19T22:13:55.492Z,12.86
2023-02-19T22:16:24.906Z,12.87
2023-02-19T22:18:53.618Z,12.92
2023-02-19T22:21:24.261Z,12.98
2023-02-19T22:23:53.960Z,13.00
2023-02-19T22:26:22.286Z,12.96
2023-02-19T22:28:50.237Z,13.02
2023-02-19T22:31:18.626Z,13.06
2023-02-19T22:33:46.999Z,13.07
2023-02-19T22:36:18.278Z,13.07
2023-02-19T22:38:50.063Z,13.08
2023-02-19T22:41:18.757Z,13.05
2023-02-19T22:43:46.825Z,13.11
2023-02-19T22:46:16.795Z,13.04
2023-02-19T22:48:49.736Z,13.09
2023-02-19T22:51:20.086Z,13.18
2023-02-19T22:53:55.061Z,13.12
2023-02-19T22:56:26.883Z,13.22
2023-02-19T22:58:55.921Z,13.21
2023-02-19T23:01:27.403Z,13.21
2023-02-19T23:03:58.730Z,13.16
2023-02-19T23:06:28.093Z,13.12
2023-02-19T23:08:58.327Z,13.16
2023-02-19T23:11:29.943Z,13.13
2023-02-19T23:13:58.339Z,13.14
2023-02-19T23:16:26.460Z,13.18
2023-02-19T23:18:54.763Z,13.17
2023-02-19T23:21:23.172Z,13.17
2023-02-19T23:23:51.189Z,13.18
2023-02-19T23:26:21.254Z,13.21
2023-02-19T23:28:49.311Z,13.25
2023-02-19T23:31:20.146Z,13.20
2023-02-19T23:33:48.325Z,13.15
2023-02-19T23:36:17.068Z,13.20
2023-02-19T23:38:46.407Z,13.24
2023-02-19T23:41:15.305Z,13.23
2023-02-19T23:43:44.779Z,13.22
2023-02-19T23:46:17.405Z,13.22
2023-02-19T23:48:46.066Z,13.21
2023-02-19T23:51:16.553Z,13.22
2023-02-19T23:53:46.940Z,13.22
2023-02-19T23:56:17.312Z,13.16
2023-02-19T23:58:46.728Z,13.29
